Time;durP1;ratioP1;P1;durP2;ratioP2;P2;SDS_P1;SDS_P2;PMS_P1;PMS_P2;Temp;Humidity;BMP_temperature;BMP_pressure;BME280_temperature;BME280_humidity;BME280_pressure;Samples;Min_cycle;Max_cycle;Signal;HPM_P1;HPM_P2
2022/03/11 03:19:31;;;;;;;53.40;37.03;;;2.30;99.90;;;;;;4958510;28;20165;-74
2022/03/11 03:21:58;;;;;;;48.40;33.63;;;2.30;99.90;;;;;;4948466;28;20043;-73
2022/03/11 03:24:24;;;;;;;58.75;39.08;;;2.20;99.90;;;;;;4968328;28;20042;-75
2022/03/11 03:26:52;;;;;;;54.30;36.30;;;2.20;99.90;;;;;;4996591;28;20045;-77
2022/03/11 03:29:19;;;;;;;43.28;32.75;;;2.20;99.90;;;;;;4981459;28;20546;-73
2022/03/11 03:31:45;;;;;;;50.55;35.30;;;2.20;99.90;;;;;;4969219;28;20647;-73
2022/03/11 03:34:12;;;;;;;53.58;36.92;;;2.10;99.90;;;;;;4965647;28;20536;-74
2022/03/11 03:36:39;;;;;;;52.45;35.90;;;2.00;99.90;;;;;;4977273;28;20141;-73
2022/03/11 03:39:06;;;;;;;55.97;38.42;;;2.00;99.90;;;;;;4969099;28;20050;-73
2022/03/11 03:41:32;;;;;;;57.90;39.85;;;2.00;99.90;;;;;;4970456;28;20054;-76
2022/03/11 03:43:59;;;;;;;57.60;38.90;;;1.90;99.90;;;;;;4982500;28;20205;-76
2022/03/11 03:46:26;;;;;;;53.13;33.83;;;1.90;99.90;;;;;;4996675;28;20137;-73
2022/03/11 03:48:53;;;;;;;47.72;33.60;;;1.80;99.90;;;;;;4970558;28;20481;-74
2022/03/11 03:51:19;;;;;;;68.07;39.42;;;1.80;99.90;;;;;;4950041;28;20134;-74
2022/03/11 03:53:46;;;;;;;53.13;37.10;;;1.80;99.90;;;;;;4944007;28;20490;-74
2022/03/11 03:56:13;;;;;;;50.40;36.35;;;1.70;99.90;;;;;;4948626;28;20120;-73
2022/03/11 03:58:39;;;;;;;49.15;36.15;;;1.70;99.90;;;;;;4961068;28;20050;-73
2022/03/11 04:01:06;;;;;;;53.08;35.85;;;1.70;99.90;;;;;;4959790;28;20042;-73
2022/03/11 04:03:35;;;;;;;52.90;35.83;;;1.70;99.90;;;;;;4970127;28;20051;-74
2022/03/11 04:06:02;;;;;;;51.67;36.53;;;1.70;99.90;;;;;;4961879;28;20540;-73
2022/03/11 04:08:30;;;;;;;56.50;36.45;;;1.70;99.90;;;;;;4963499;28;20658;-74
2022/03/11 04:10:56;;;;;;;57.95;37.22;;;1.60;99.90;;;;;;4987639;28;20050;-73
2022/03/11 04:13:23;;;;;;;50.97;37.17;;;1.50;99.90;;;;;;4962896;28;20074;-73
2022/03/11 04:15:50;;;;;;;46.13;33.30;;;1.50;99.90;;;;;;4976911;28;20051;-74
2022/03/11 04:18:17;;;;;;;47.92;32.25;;;1.50;99.90;;;;;;4962134;28;20047;-74
2022/03/11 04:20:44;;;;;;;46.72;31.65;;;1.40;99.90;;;;;;4960020;28;20054;-74
2022/03/11 04:23:10;;;;;;;54.25;34.97;;;1.50;99.90;;;;;;4960598;28;20133;-74
2022/03/11 04:25:37;;;;;;;48.20;33.53;;;1.40;99.90;;;;;;4960207;28;20138;-74
2022/03/11 04:28:04;;;;;;;47.40;33.58;;;1.40;99.90;;;;;;4962562;28;20055;-74
2022/03/11 04:30:31;;;;;;;54.50;34.63;;;1.40;99.90;;;;;;4962022;28;20043;-75
2022/03/11 04:32:58;;;;;;;52.45;35.40;;;1.40;99.90;;;;;;4969552;28;20086;-74
2022/03/11 04:35:24;;;;;;;48.50;34.60;;;1.40;99.90;;;;;;4960702;28;20087;-74
2022/03/11 04:37:51;;;;;;;49.53;34.83;;;1.40;99.90;;;;;;4964193;28;20119;-74
2022/03/11 04:40:18;;;;;;;57.00;37.55;;;1.40;99.90;;;;;;4972603;28;20046;-74
2022/03/11 04:42:44;;;;;;;42.65;32.20;;;1.30;99.90;;;;;;4982773;28;20046;-74
2022/03/11 04:45:11;;;;;;;53.60;38.00;;;1.30;99.90;;;;;;4985509;28;20248;-74
2022/03/11 04:47:38;;;;;;;55.97;36.38;;;1.30;99.90;;;;;;4982787;28;20132;-74
2022/03/11 04:50:05;;;;;;;46.20;31.90;;;1.20;99.90;;;;;;4953558;28;20043;-74
2022/03/11 04:52:33;;;;;;;50.42;34.22;;;1.20;99.90;;;;;;4976586;28;20193;-74
2022/03/11 04:55:00;;;;;;;55.22;38.13;;;1.20;99.90;;;;;;4946972;28;20051;-73
2022/03/11 04:57:27;;;;;;;53.17;35.70;;;1.20;99.90;;;;;;4946967;28;20090;-75
2022/03/11 04:59:54;;;;;;;53.13;37.08;;;1.20;99.90;;;;;;4965557;28;20583;-75
2022/03/11 05:02:25;;;;;;;51.60;35.10;;;1.10;99.90;;;;;;4977189;28;20050;-75
2022/03/11 05:04:52;;;;;;;53.42;39.55;;;1.10;99.90;;;;;;4946012;28;20105;-76
2022/03/11 05:07:19;;;;;;;52.38;36.78;;;1.10;99.90;;;;;;4960603;28;20715;-75
2022/03/11 05:09:46;;;;;;;49.22;36.58;;;1.00;99.90;;;;;;4969132;28;20154;-76
2022/03/11 05:12:13;;;;;;;53.35;37.67;;;1.00;99.90;;;;;;4969723;28;20093;-76
2022/03/11 05:14:40;;;;;;;53.20;38.50;;;1.00;99.90;;;;;;4965467;28;20046;-76
2022/03/11 05:17:06;;;;;;;58.58;39.20;;;1.00;99.90;;;;;;4964106;28;20549;-76
2022/03/11 05:19:33;;;;;;;59.08;41.45;;;1.00;99.90;;;;;;4964065;28;20050;-75
2022/03/11 05:22:00;;;;;;;44.10;33.35;;;1.00;99.90;;;;;;4962343;28;20059;-76
2022/03/11 05:24:27;;;;;;;48.90;35.78;;;1.00;99.90;;;;;;4964069;28;20137;-75
2022/03/11 05:26:57;;;;;;;50.13;37.70;;;0.90;99.90;;;;;;4963968;28;20050;-76
2022/03/11 05:29:24;;;;;;;56.30;37.58;;;1.00;99.90;;;;;;4963831;28;20047;-74
2022/03/11 05:31:51;;;;;;;46.70;35.58;;;1.00;99.90;;;;;;4968703;28;20042;-75
2022/03/11 05:34:17;;;;;;;56.13;39.25;;;0.90;99.90;;;;;;4968174;28;20054;-74
2022/03/11 05:36:44;;;;;;;66.32;41.08;;;0.90;99.90;;;;;;4963426;28;20351;-74
2022/03/11 05:39:12;;;;;;;59.10;39.42;;;0.90;99.90;;;;;;4970271;28;20053;-74
2022/03/11 05:41:39;;;;;;;53.22;39.83;;;0.90;99.90;;;;;;4974796;28;20509;-74
2022/03/11 05:44:06;;;;;;;60.63;41.38;;;0.80;99.90;;;;;;4999643;28;20516;-73
2022/03/11 05:46:33;;;;;;;55.25;37.92;;;0.80;99.90;;;;;;4983600;28;20586;-73
2022/03/11 05:49:00;;;;;;;52.13;37.55;;;0.80;99.90;;;;;;4970885;28;20089;-73
2022/03/11 05:51:26;;;;;;;54.63;38.53;;;0.70;99.90;;;;;;4961411;28;20153;-76
2022/03/11 05:53:53;;;;;;;54.03;38.40;;;0.70;99.90;;;;;;4963264;28;20145;-76
2022/03/11 05:56:23;;;;;;;56.03;39.22;;;0.60;99.90;;;;;;4975413;28;20081;-76
2022/03/11 05:58:50;;;;;;;45.05;34.90;;;0.70;99.90;;;;;;4964043;28;20664;-76
2022/03/11 06:01:17;;;;;;;50.50;41.35;;;0.60;99.90;;;;;;4967766;28;20070;-75
2022/03/11 06:03:46;;;;;;;57.40;42.30;;;0.60;99.90;;;;;;4975006;28;20104;-75
2022/03/11 06:06:14;;;;;;;60.10;43.42;;;0.60;99.90;;;;;;4982556;28;20165;-76
2022/03/11 06:08:42;;;;;;;49.17;39.05;;;0.60;99.90;;;;;;4975358;28;20066;-75
2022/03/11 06:11:13;;;;;;;55.65;39.58;;;0.70;99.90;;;;;;4967385;28;20047;-76
2022/03/11 06:13:40;;;;;;;56.58;38.83;;;0.60;99.90;;;;;;4961477;28;20545;-75
2022/03/11 06:16:07;;;;;;;54.75;40.67;;;0.60;99.90;;;;;;4962431;28;20078;-74
2022/03/11 06:18:34;;;;;;;48.88;37.90;;;0.60;99.90;;;;;;4959453;28;20054;-75
2022/03/11 06:21:00;;;;;;;46.40;37.58;;;0.50;99.90;;;;;;4961237;28;20101;-74
2022/03/11 06:23:29;;;;;;;54.75;40.00;;;0.60;99.90;;;;;;4960731;28;20481;-75
2022/03/11 06:25:56;;;;;;;56.90;40.47;;;0.60;99.90;;;;;;4962839;28;20080;-74
2022/03/11 06:28:23;;;;;;;49.00;37.03;;;0.60;99.90;;;;;;4962182;28;20070;-75
2022/03/11 06:30:51;;;;;;;53.50;38.63;;;0.50;99.90;;;;;;4962381;28;20043;-74
2022/03/11 06:33:20;;;;;;;46.63;37.25;;;0.50;99.90;;;;;;4970636;28;20126;-75
2022/03/11 06:35:48;;;;;;;52.42;40.20;;;0.60;99.90;;;;;;4982061;28;20560;-74
2022/03/11 06:38:14;;;;;;;53.53;39.55;;;0.60;99.90;;;;;;4981792;28;20124;-75
2022/03/11 06:40:49;;;;;;;47.78;37.13;;;0.70;99.90;;;;;;4981070;28;20042;-74
2022/03/11 06:43:19;;;;;;;50.97;38.90;;;0.70;99.90;;;;;;4960661;28;20101;-74
2022/03/11 06:45:46;;;;;;;48.40;39.30;;;0.80;99.90;;;;;;4960503;28;20058;-75
2022/03/11 06:48:14;;;;;;;44.63;37.92;;;0.80;99.90;;;;;;4954265;28;20413;-74
2022/03/11 06:50:41;;;;;;;42.05;37.47;;;0.90;99.90;;;;;;4967758;28;20043;-74
2022/03/11 06:53:08;;;;;;;47.58;39.20;;;1.00;99.90;;;;;;4959929;28;20521;-75
2022/03/11 06:55:34;;;;;;;51.17;38.67;;;1.00;99.90;;;;;;4961309;28;20228;-74
2022/03/11 06:58:01;;;;;;;47.88;39.38;;;1.00;99.90;;;;;;4960444;28;20117;-74
2022/03/11 07:00:28;;;;;;;50.53;39.20;;;1.10;99.90;;;;;;4959908;28;20533;-75
2022/03/11 07:02:55;;;;;;;47.05;41.67;;;1.10;99.90;;;;;;4966683;28;20034;-75
2022/03/11 07:05:22;;;;;;;49.03;39.53;;;1.20;99.90;;;;;;4961851;28;20146;-76
2022/03/11 07:07:48;;;;;;;42.72;38.33;;;1.20;99.90;;;;;;4961447;28;20085;-75
2022/03/11 07:10:16;;;;;;;36.45;33.05;;;1.20;99.90;;;;;;4961600;28;20055;-75
2022/03/11 07:12:43;;;;;;;45.03;39.80;;;1.30;99.90;;;;;;4962264;28;20134;-76
2022/03/11 07:15:10;;;;;;;48.45;42.75;;;1.30;99.90;;;;;;4960404;28;20584;-76
2022/03/11 07:17:37;;;;;;;44.75;39.13;;;1.40;99.90;;;;;;4979335;28;20130;-75
2022/03/11 07:20:05;;;;;;;43.53;39.10;;;1.50;99.90;;;;;;4972559;28;20058;-75
2022/03/11 07:22:32;;;;;;;44.92;40.10;;;1.50;99.90;;;;;;4988306;28;20158;-75
2022/03/11 07:24:59;;;;;;;44.15;39.08;;;1.50;99.90;;;;;;4963030;28;20142;-74
2022/03/11 07:27:26;;;;;;;40.30;35.95;;;1.60;99.90;;;;;;4960909;28;20047;-75
2022/03/11 07:29:56;;;;;;;47.33;40.92;;;1.70;99.90;;;;;;4963331;28;20046;-74
2022/03/11 07:32:24;;;;;;;46.45;40.03;;;1.70;99.90;;;;;;4969942;28;20066;-75
2022/03/11 07:34:50;;;;;;;41.95;37.60;;;1.80;99.90;;;;;;4960370;28;20086;-75
2022/03/11 07:37:17;;;;;;;41.10;36.95;;;1.80;99.90;;;;;;4941063;28;20063;-75
2022/03/11 07:39:45;;;;;;;45.28;38.85;;;1.80;99.90;;;;;;4957789;28;20277;-75
2022/03/11 07:42:12;;;;;;;44.03;39.30;;;1.90;99.90;;;;;;4961555;28;20540;-75
2022/03/11 07:44:42;;;;;;;42.47;38.25;;;2.00;99.90;;;;;;4961023;28;20042;-75
2022/03/11 07:47:08;;;;;;;45.13;38.65;;;2.00;99.90;;;;;;4976160;28;20046;-77
2022/03/11 07:49:35;;;;;;;42.20;37.97;;;2.10;99.90;;;;;;4969788;28;20085;-75
2022/03/11 07:52:03;;;;;;;39.15;35.53;;;2.10;99.90;;;;;;4961025;28;20671;-75
2022/03/11 07:54:30;;;;;;;39.95;35.83;;;2.20;99.90;;;;;;4961457;28;20082;-75
2022/03/11 07:56:57;;;;;;;40.63;36.55;;;2.20;99.90;;;;;;4962493;28;20057;-76
2022/03/11 07:59:25;;;;;;;41.88;37.40;;;2.40;99.90;;;;;;4962051;28;20097;-75
2022/03/11 08:01:52;;;;;;;38.60;35.00;;;2.50;99.90;;;;;;4978090;28;20054;-77
2022/03/11 08:04:19;;;;;;;41.10;37.10;;;2.50;99.90;;;;;;4971590;28;20050;-78
2022/03/11 08:06:45;;;;;;;42.20;37.92;;;2.60;99.90;;;;;;4961494;28;20074;-76
2022/03/11 08:09:12;;;;;;;43.25;39.05;;;2.90;99.90;;;;;;4963280;28;20199;-78
2022/03/11 08:11:39;;;;;;;41.13;37.40;;;3.20;99.90;;;;;;4959933;28;20082;-78
2022/03/11 08:14:06;;;;;;;43.03;38.97;;;3.30;99.90;;;;;;4962959;28;20128;-76
2022/03/11 08:16:32;;;;;;;39.35;35.80;;;3.40;99.90;;;;;;4961426;28;20756;-78
2022/03/11 08:18:59;;;;;;;41.78;37.85;;;3.70;99.90;;;;;;4972759;28;20074;-77
2022/03/11 08:21:26;;;;;;;40.80;37.05;;;3.70;99.90;;;;;;4981988;28;20089;-76
2022/03/11 08:23:53;;;;;;;42.80;39.15;;;3.90;99.90;;;;;;4981860;28;20429;-77
2022/03/11 08:26:20;;;;;;;44.45;40.10;;;3.90;99.90;;;;;;4980241;28;20067;-76
2022/03/11 08:28:46;;;;;;;41.40;37.85;;;3.90;99.90;;;;;;4964086;28;20050;-76
2022/03/11 08:31:33;;;;;;;37.70;34.60;;;4.00;99.90;;;;;;4973117;28;20047;-77
2022/03/11 08:34:00;;;;;;;42.55;38.72;;;3.80;99.90;;;;;;4980431;28;20047;-78
2022/03/11 08:36:27;;;;;;;40.97;37.13;;;4.00;99.90;;;;;;4985576;28;20251;-77
2022/03/11 08:38:54;;;;;;;42.55;39.05;;;4.20;99.90;;;;;;4968297;28;20057;-77
2022/03/11 08:41:22;;;;;;;40.40;37.22;;;4.40;99.90;;;;;;4963353;28;20051;-77
2022/03/11 08:43:49;;;;;;;40.42;37.53;;;4.40;99.90;;;;;;4964947;28;20051;-77
2022/03/11 08:46:16;;;;;;;43.60;39.88;;;4.60;99.90;;;;;;4964840;28;20093;-77
2022/03/11 08:48:43;;;;;;;42.38;39.00;;;4.80;99.90;;;;;;4971984;28;20651;-76
2022/03/11 08:51:11;;;;;;;46.03;42.22;;;4.90;99.90;;;;;;4978236;28;20628;-76
2022/03/11 08:53:38;;;;;;;43.78;40.40;;;4.80;99.90;;;;;;4985161;28;20050;-76
2022/03/11 08:56:05;;;;;;;43.85;40.47;;;4.80;99.90;;;;;;4984680;28;20447;-76
2022/03/11 08:58:31;;;;;;;43.47;40.10;;;4.90;99.90;;;;;;4975688;28;20109;-76
2022/03/11 09:00:58;;;;;;;41.63;38.83;;;4.80;99.90;;;;;;4969357;28;20425;-77
2022/03/11 09:03:25;;;;;;;43.15;39.72;;;4.80;99.90;;;;;;4975905;28;20695;-76
2022/03/11 09:05:53;;;;;;;41.15;37.50;;;5.00;99.90;;;;;;4999502;28;20054;-76
2022/03/11 09:08:20;;;;;;;44.08;40.70;;;5.10;99.90;;;;;;4981356;28;20066;-76
2022/03/11 09:10:47;;;;;;;45.63;41.80;;;5.10;99.90;;;;;;4964284;28;20050;-76
2022/03/11 09:13:14;;;;;;;43.10;39.42;;;5.30;99.90;;;;;;4945195;28;20074;-76
2022/03/11 09:15:41;;;;;;;43.28;39.85;;;5.40;99.90;;;;;;4945911;28;20059;-76
2022/03/11 09:18:10;;;;;;;42.13;38.72;;;5.30;99.90;;;;;;4962030;28;20137;-76
2022/03/11 09:20:38;;;;;;;40.83;37.53;;;5.40;99.90;;;;;;4971473;28;20050;-76
2022/03/11 09:23:06;;;;;;;40.85;37.80;;;5.60;99.90;;;;;;4964656;28;20063;-77
2022/03/11 09:25:33;;;;;;;43.97;40.40;;;5.70;99.90;;;;;;4964744;28;20767;-76
2022/03/11 09:28:05;;;;;;;42.95;39.53;;;5.70;99.90;;;;;;4965068;28;20058;-76
2022/03/11 09:30:34;;;;;;;39.80;36.33;;;5.60;99.90;;;;;;4957064;28;20158;-77
2022/03/11 09:33:01;;;;;;;36.53;33.55;;;5.80;99.90;;;;;;4972631;28;20050;-76
2022/03/11 09:35:28;;;;;;;38.00;34.60;;;5.70;99.90;;;;;;4979339;28;20043;-76
2022/03/11 09:37:54;;;;;;;37.55;34.30;;;5.80;99.90;;;;;;4964922;28;20101;-76
2022/03/11 09:40:21;;;;;;;36.03;32.80;;;5.90;99.90;;;;;;4963643;28;20222;-76
2022/03/11 09:42:50;;;;;;;38.67;35.22;;;5.90;99.90;;;;;;4964506;28;20054;-76
2022/03/11 09:45:18;;;;;;;37.63;34.42;;;5.80;99.90;;;;;;4963001;28;20067;-76
2022/03/11 09:47:46;;;;;;;34.25;31.63;;;6.10;99.90;;;;;;4964966;28;20132;-76
2022/03/11 09:50:15;;;;;;;35.30;32.33;;;6.00;99.90;;;;;;4960299;28;20046;-76
2022/03/11 09:52:42;;;;;;;35.65;32.47;;;6.20;99.90;;;;;;4984199;28;20050;-75
2022/03/11 09:55:09;;;;;;;35.65;32.47;;;6.10;99.90;;;;;;4984500;28;20046;-75
2022/03/11 09:57:36;;;;;;;36.17;32.92;;;6.30;99.90;;;;;;4999096;28;20109;-75
2022/03/11 10:00:04;;;;;;;35.58;32.55;;;6.30;99.90;;;;;;4974247;28;20082;-76
2022/03/11 10:02:41;;;;;;;39.42;36.40;;;6.20;99.20;;;;;;4973616;28;20157;-76
2022/03/11 10:05:12;;;;;;;40.45;37.40;;;6.30;99.50;;;;;;4983579;28;20065;-76
2022/03/11 10:08:03;;;;;;;40.13;37.22;;;6.30;98.80;;;;;;4984157;28;20496;-76
2022/03/11 10:10:30;;;;;;;42.30;39.00;;;6.30;99.10;;;;;;4978154;28;20524;-76
2022/03/11 10:13:07;;;;;;;43.53;40.22;;;6.40;98.70;;;;;;4963141;28;20066;-76
2022/03/11 10:15:34;;;;;;;45.42;42.03;;;6.60;99.10;;;;;;4962485;28;20594;-76
2022/03/11 10:18:04;;;;;;;45.00;41.55;;;6.50;98.70;;;;;;4969633;28;20046;-76
2022/03/11 10:20:31;;;;;;;43.28;39.95;;;6.70;97.50;;;;;;4971903;28;20096;-76
2022/03/11 10:22:58;;;;;;;45.50;42.30;;;6.70;98.10;;;;;;4963037;28;20047;-75
2022/03/11 10:25:30;;;;;;;45.03;41.80;;;7.00;97.50;;;;;;4963396;28;20070;-75
2022/03/11 10:28:03;;;;;;;45.08;41.85;;;7.20;98.20;;;;;;4964350;28;20055;-76
2022/03/11 10:30:33;;;;;;;42.90;40.08;;;7.40;97.10;;;;;;4963806;28;20105;-76
2022/03/11 10:33:02;;;;;;;44.38;40.58;;;7.40;96.70;;;;;;4963938;28;20049;-76
2022/03/11 10:35:36;;;;;;;43.35;40.25;;;7.80;97.10;;;;;;4963218;28;20042;-74
2022/03/11 10:38:12;;;;;;;43.38;40.35;;;7.70;96.20;;;;;;4962066;28;20134;-74
2022/03/11 10:40:53;;;;;;;42.88;39.88;;;7.30;95.70;;;;;;4960735;28;20051;-73
2022/03/11 10:43:30;;;;;;;28.08;25.40;;;7.40;96.10;;;;;;4962196;28;20141;-74
2022/03/11 10:46:11;;;;;;;42.17;39.13;;;7.50;96.40;;;;;;4960143;28;20047;-74
2022/03/11 10:48:51;;;;;;;40.47;37.35;;;7.80;96.00;;;;;;4961328;28;20480;-74
2022/03/11 10:51:30;;;;;;;41.15;37.25;;;8.00;95.30;;;;;;4979360;28;20059;-73
2022/03/11 10:53:58;;;;;;;43.50;40.13;;;7.90;94.90;;;;;;4961593;28;20054;-74
2022/03/11 10:56:33;;;;;;;40.03;37.53;;;8.00;94.50;;;;;;4961741;28;20051;-74
2022/03/11 10:59:02;;;;;;;41.55;38.38;;;8.20;93.70;;;;;;4958321;28;20047;-75
2022/03/11 11:01:39;;;;;;;39.50;37.03;;;8.40;94.00;;;;;;4956704;28;20047;-74
2022/03/11 11:04:08;;;;;;;39.78;37.17;;;8.60;93.80;;;;;;4957374;28;20061;-74
2022/03/11 11:06:36;;;;;;;41.40;38.53;;;8.60;93.40;;;;;;4958939;28;20138;-74
2022/03/11 12:12:59;;;;;;;39.80;37.08;;;9.70;87.20;;;;;;5063605;27;20913;-69
2022/03/11 12:15:31;;;;;;;41.35;38.55;;;9.70;83.60;;;;;;5057552;27;20083;-71
2022/03/11 12:18:02;;;;;;;40.97;38.13;;;9.40;82.40;;;;;;5042023;28;20041;-71
2022/03/11 12:20:31;;;;;;;41.90;39.20;;;9.50;83.60;;;;;;5041334;28;20040;-71
2022/03/11 12:23:08;;;;;;;42.25;39.25;;;9.80;82.90;;;;;;5041911;28;20094;-71
2022/03/11 12:25:45;;;;;;;39.42;36.72;;;10.10;84.00;;;;;;5041756;28;21040;-68
2022/03/11 12:28:34;;;;;;;40.03;37.28;;;10.10;82.40;;;;;;5041942;28;20051;-70
2022/03/11 12:31:09;;;;;;;39.88;37.20;;;9.90;82.90;;;;;;5040152;28;20060;-69
2022/03/11 12:33:42;;;;;;;40.05;37.55;;;10.10;80.80;;;;;;5041369;28;20831;-69
2022/03/11 12:36:11;;;;;;;39.13;36.60;;;10.00;81.00;;;;;;5042453;28;20053;-69
2022/03/11 12:38:39;;;;;;;41.40;38.50;;;10.10;81.10;;;;;;5042819;28;21647;-69
2022/03/11 12:41:11;;;;;;;39.53;37.03;;;10.00;80.80;;;;;;5039885;28;20053;-72
2022/03/11 12:43:40;;;;;;;40.13;37.40;;;10.10;79.50;;;;;;5043730;28;20041;-69
2022/03/11 12:46:09;;;;;;;38.15;35.60;;;10.10;79.30;;;;;;5040818;28;20080;-70
2022/03/11 12:48:39;;;;;;;38.28;35.85;;;10.30;78.10;;;;;;5038755;28;20053;-69
2022/03/11 12:51:11;;;;;;;36.72;34.53;;;10.20;77.60;;;;;;5040875;28;20048;-70
2022/03/11 12:53:39;;;;;;;38.90;36.38;;;10.30;77.50;;;;;;5041211;28;20044;-69
2022/03/11 12:56:06;;;;;;;37.55;34.95;;;10.20;77.60;;;;;;5043456;28;20125;-70
2022/03/11 12:58:36;;;;;;;36.20;33.67;;;10.30;76.90;;;;;;5024350;28;20145;-70
2022/03/11 13:01:08;;;;;;;38.17;35.90;;;10.30;76.90;;;;;;5039837;28;20163;-69
2022/03/11 13:03:41;;;;;;;38.05;35.53;;;10.40;76.80;;;;;;5042422;28;20372;-69
2022/03/11 13:06:13;;;;;;;36.60;34.10;;;10.80;78.30;;;;;;5041770;28;20052;-69
2022/03/11 13:08:42;;;;;;;38.15;35.50;;;10.80;75.60;;;;;;5041810;28;20102;-71
2022/03/11 13:11:12;;;;;;;36.80;34.50;;;10.30;74.40;;;;;;5039703;28;20052;-70
2022/03/11 13:13:39;;;;;;;37.83;35.42;;;10.10;73.60;;;;;;5040011;28;20055;-71
2022/03/11 13:16:06;;;;;;;40.35;37.67;;;10.00;73.60;;;;;;5042938;28;20512;-70
2022/03/11 13:18:38;;;;;;;38.80;36.10;;;10.40;75.90;;;;;;5039632;28;20707;-71
2022/03/11 13:21:06;;;;;;;39.55;36.67;;;10.40;74.70;;;;;;5060454;22;20101;-75
2022/03/11 13:23:37;;;;;;;36.65;34.40;;;10.60;75.00;;;;;;5057200;28;20048;-76
2022/03/11 13:26:19;;;;;;;37.83;35.40;;;10.60;76.30;;;;;;5052569;28;20206;-76
2022/03/11 13:28:49;;;;;;;39.22;36.72;;;10.90;73.90;;;;;;5038141;28;20053;-77
2022/03/11 13:31:33;;;;;;;38.35;35.88;;;11.00;74.80;;;;;;5036163;28;20053;-75
2022/03/11 13:34:09;;;;;;;38.42;35.97;;;10.90;73.10;;;;;;5043854;28;20128;-76
2022/03/11 13:36:39;;;;;;;40.30;37.80;;;10.80;74.30;;;;;;5044039;28;20045;-76
2022/03/11 13:39:13;;;;;;;39.10;36.22;;;10.70;73.50;;;;;;5003471;28;20208;-76
2022/03/11 13:41:46;;;;;;;38.97;36.42;;;10.70;73.60;;;;;;5033847;28;20076;-76
2022/03/11 13:44:41;;;;;;;38.95;36.30;;;10.70;74.00;;;;;;5047274;28;20053;-76
2022/03/11 13:47:19;;;;;;;38.40;35.93;;;10.70;73.50;;;;;;5019482;28;20134;-75
2022/03/11 13:49:53;;;;;;;39.65;37.05;;;10.70;74.10;;;;;;5060312;28;20111;-76
2022/03/11 13:52:22;;;;;;;39.42;36.83;;;10.80;74.50;;;;;;5038348;28;20749;-77
2022/03/11 13:55:10;;;;;;;37.20;34.90;;;11.00;73.50;;;;;;5039085;28;20048;-76
2022/03/11 13:57:41;;;;;;;37.00;34.53;;;11.10;73.00;;;;;;5040569;28;20132;-76
2022/03/11 14:00:20;;;;;;;35.60;33.38;;;11.10;73.30;;;;;;5038653;28;20191;-76
2022/03/11 14:02:47;;;;;;;37.75;35.38;;;11.10;72.80;;;;;;5039413;28;20122;-76
2022/03/11 14:05:21;;;;;;;36.95;34.75;;;11.00;72.80;;;;;;5040823;28;20359;-75
2022/03/11 14:07:56;;;;;;;39.28;36.78;;;10.80;72.80;;;;;;5039021;28;20141;-75
2022/03/11 14:10:24;;;;;;;;;;;10.90;74.10;;;;;;5038821;28;20040;-76
2022/03/11 14:13:02;;;;;;;39.38;36.58;;;11.00;72.90;;;;;;5045421;28;20001;-76
2022/03/11 14:15:37;;;;;;;38.28;35.90;;;10.90;72.40;;;;;;5057321;28;20130;-75
2022/03/11 14:18:08;;;;;;;39.60;36.85;;;11.10;72.50;;;;;;5042678;28;20063;-77
2022/03/11 14:20:54;;;;;;;37.97;35.47;;;11.20;73.20;;;;;;5058363;28;20448;-77
2022/03/11 14:23:21;;;;;;;37.80;35.20;;;11.30;72.80;;;;;;5022706;28;20690;-76
2022/03/11 14:25:49;;;;;;;38.58;35.97;;;11.10;72.30;;;;;;5039010;28;20072;-77
2022/03/11 14:28:17;;;;;;;36.50;34.22;;;11.30;74.00;;;;;;5038700;28;20052;-76
2022/03/11 14:30:45;;;;;;;37.80;35.22;;;11.10;72.90;;;;;;5036672;28;20118;-76
2022/03/11 14:33:15;;;;;;;36.55;34.25;;;10.90;74.70;;;;;;5039748;28;20099;-78
2022/03/11 14:35:42;;;;;;;35.38;32.92;;;11.10;74.30;;;;;;5036563;28;20045;-77
2022/03/11 14:38:09;;;;;;;35.17;32.88;;;11.00;74.40;;;;;;5040781;28;20037;-79
2022/03/11 14:40:37;;;;;;;35.95;33.35;;;11.20;76.20;;;;;;5037574;28;20041;-77
2022/03/11 14:43:04;;;;;;;35.90;33.40;;;11.30;75.00;;;;;;5024771;28;20076;-77
2022/03/11 14:45:32;;;;;;;37.10;34.38;;;11.10;75.50;;;;;;5039492;28;20044;-77
2022/03/11 14:48:07;;;;;;;40.25;36.95;;;11.00;74.50;;;;;;5059464;28;20689;-76
2022/03/11 14:50:43;;;;;;;35.67;33.40;;;10.90;74.80;;;;;;5056904;28;20135;-76
2022/03/11 14:53:10;;;;;;;37.47;35.13;;;10.80;75.40;;;;;;5032268;28;20040;-76
2022/03/11 14:55:37;;;;;;;36.30;33.78;;;10.70;75.40;;;;;;5039205;28;20040;-78
2022/03/11 14:58:07;;;;;;;38.15;35.60;;;10.70;75.60;;;;;;5038430;28;20045;-76
2022/03/11 15:00:34;;;;;;;39.55;36.92;;;10.50;76.30;;;;;;5035184;28;20478;-77
2022/03/11 15:03:06;;;;;;;39.08;36.47;;;10.60;76.50;;;;;;5037210;28;20045;-77
2022/03/11 15:05:35;;;;;;;38.70;36.10;;;10.50;76.50;;;;;;5038211;28;20081;-77
2022/03/11 15:08:02;;;;;;;39.50;36.35;;;10.40;77.00;;;;;;5038040;28;20080;-76
2022/03/11 15:10:29;;;;;;;38.22;35.22;;;10.40;76.40;;;;;;5037138;28;20071;-78
2022/03/11 15:12:56;;;;;;;38.03;35.33;;;10.50;77.30;;;;;;5044976;28;20445;-78
2022/03/11 15:15:23;;;;;;;35.92;33.33;;;10.40;76.30;;;;;;5044453;28;20805;-76
2022/03/11 15:17:50;;;;;;;36.38;33.78;;;10.40;76.90;;;;;;5039147;28;20053;-76
2022/03/11 15:20:17;;;;;;;37.13;34.53;;;10.50;78.00;;;;;;5037618;28;20132;-76
2022/03/11 15:22:46;;;;;;;37.10;34.50;;;10.40;77.00;;;;;;5036341;28;20087;-78
2022/03/11 15:25:19;;;;;;;36.13;33.53;;;10.40;77.60;;;;;;5016808;28;20069;-77
2022/03/11 15:27:46;;;;;;;36.90;34.08;;;10.50;77.10;;;;;;5026085;28;20470;-77
2022/03/11 15:30:13;;;;;;;36.08;33.78;;;10.40;77.00;;;;;;5036202;28;20115;-78
2022/03/11 15:32:40;;;;;;;36.30;33.60;;;10.40;76.60;;;;;;5019424;28;20052;-76
2022/03/11 15:35:07;;;;;;;35.83;33.30;;;10.40;76.90;;;;;;5036977;28;20445;-77
2022/03/11 15:37:34;;;;;;;36.97;34.38;;;10.40;76.90;;;;;;5037149;28;20094;-78
2022/03/11 15:40:01;;;;;;;36.88;34.38;;;10.40;77.30;;;;;;5020601;28;20481;-78
2022/03/11 15:42:28;;;;;;;37.97;35.65;;;10.40;76.80;;;;;;5044042;28;20040;-76
2022/03/11 15:44:56;;;;;;;37.33;34.80;;;10.50;77.20;;;;;;5044743;28;20076;-78
2022/03/11 15:47:22;;;;;;;36.25;33.85;;;10.50;77.40;;;;;;5038887;28;20071;-75
2022/03/11 15:49:49;;;;;;;38.13;35.47;;;10.50;77.40;;;;;;5057172;28;20455;-79
2022/03/11 15:52:16;;;;;;;38.75;36.25;;;10.50;76.80;;;;;;5056425;28;20048;-76
2022/03/11 15:54:43;;;;;;;38.33;35.92;;;10.50;76.40;;;;;;5057716;28;20056;-77
2022/03/11 15:57:10;;;;;;;38.45;35.78;;;10.40;76.60;;;;;;5043798;28;20049;-77
2022/03/11 15:59:37;;;;;;;42.03;38.80;;;10.50;77.00;;;;;;5036157;28;20061;-78
2022/03/11 16:02:24;;;;;;;37.60;35.20;;;10.50;76.40;;;;;;5037353;28;20049;-76
2022/03/11 16:04:51;;;;;;;39.55;36.83;;;10.40;76.30;;;;;;5038588;28;20597;-77
2022/03/11 16:07:18;;;;;;;38.60;35.80;;;10.50;77.30;;;;;;5036451;28;20053;-77
2022/03/11 16:09:44;;;;;;;37.33;34.75;;;10.40;77.00;;;;;;5036354;28;20062;-78
2022/03/11 16:12:11;;;;;;;36.53;34.03;;;10.30;77.80;;;;;;5042866;28;20060;-77
2022/03/11 16:14:38;;;;;;;41.63;38.35;;;10.30;77.70;;;;;;5048329;28;20098;-77
2022/03/11 16:17:07;;;;;;;37.60;34.85;;;10.20;77.60;;;;;;5049927;28;20140;-78
2022/03/11 16:19:34;;;;;;;37.90;35.30;;;10.20;77.60;;;;;;5036695;28;20627;-77
2022/03/11 16:22:06;;;;;;;37.30;34.72;;;10.20;77.70;;;;;;5037385;28;20079;-77
2022/03/11 16:24:34;;;;;;;36.92;34.42;;;10.20;77.10;;;;;;5037074;28;20056;-79
2022/03/11 16:27:17;;;;;;;37.28;34.75;;;10.10;77.90;;;;;;5036419;28;20041;-79
2022/03/11 16:29:55;;;;;;;37.58;34.97;;;10.10;78.50;;;;;;5019860;28;20613;-79
2022/03/11 16:32:24;;;;;;;35.33;32.60;;;10.00;77.20;;;;;;5035796;28;20037;-78
2022/03/11 16:34:52;;;;;;;37.08;34.45;;;10.00;77.30;;;;;;5036034;28;20045;-78
2022/03/11 16:37:20;;;;;;;34.78;32.33;;;10.00;77.60;;;;;;5051899;28;20106;-78
2022/03/11 16:39:46;;;;;;;33.70;31.50;;;10.00;77.90;;;;;;5038008;28;20518;-78
2022/03/11 16:42:13;;;;;;;31.35;28.88;;;10.00;77.80;;;;;;5037089;28;20053;-79
2022/03/11 16:44:40;;;;;;;33.55;30.67;;;9.90;78.10;;;;;;5035484;28;20136;-78
2022/03/11 16:47:08;;;;;;;32.55;29.83;;;9.80;78.60;;;;;;5037111;28;20152;-79
2022/03/11 16:49:37;;;;;;;30.90;28.75;;;9.70;78.30;;;;;;5036625;28;20120;-78
2022/03/11 16:52:05;;;;;;;31.63;29.30;;;9.70;78.30;;;;;;5037035;28;20044;-77
2022/03/11 16:54:32;;;;;;;29.92;27.83;;;9.60;78.30;;;;;;5037839;28;20129;-76
2022/03/11 16:56:59;;;;;;;31.70;29.05;;;9.60;78.00;;;;;;5036914;28;20292;-77
2022/03/11 16:59:26;;;;;;;30.63;28.40;;;9.50;78.30;;;;;;5040039;28;20044;-79
2022/03/11 17:01:53;;;;;;;35.92;33.28;;;9.40;78.40;;;;;;5041984;28;20115;-77
2022/03/11 17:04:23;;;;;;;33.30;30.77;;;9.40;78.40;;;;;;5044108;28;20053;-78